Thessalon, Ontario

7:11 PM EDT on July 01, 2015 (GMT -0400)
Lafarge Smelter Bay Dock | | Change Station
CLOSE
Current Station
Personal Weather Station
Location: Thessalon, ONTARIO
Elevation: 581 ft
Nearby Weather Stations

Elev 581 ft 46.25 °N, 83.54 °W | Updated 34 seconds ago

Overcast
Overcast
65.8 °F
Feels Like 65.8 °F
N
6.0
Wind Variable Wind from North
Gusts 7.0 mph

Today
High -- | Low -- °F
--% Chance of Precip.
Yesterday
High -- | Low -- °F
Precip. -- in
5:46 AM 9:29 PM
Full, 100% visible
Pressure 29.91 in
Visibility 9.0 miles
Clouds Overcast 4400 ft
Dew Point 49 °F
Humidity 55%
Rainfall 0.00 in
Snow Depth Not available.
UV 1 out of 12
Pollen Not available.
Air Quality Not available.
Flu Activity Not available.
METAR CYZE 012300Z AUTO 30008KT 9SM OVC044 18/12 A2990 RMK SLP126 DENSITY ALT 1000FT

More Conditions Fewer Conditions

Pressure 29.91 in
Visibility 9.0 miles
Clouds Overcast 4400 ft
Dew Point 49 °F
Humidity 55%
Rainfall 0.00 in
Snow Depth Not available.
UV 1 out of 12
Pollen Not available.
Air Quality Not available.
Flu Activity Not available.
METAR CYZE 012300Z AUTO 30008KT 9SM OVC044 18/12 A2990 RMK SLP126 DENSITY ALT 1000FT

More Conditions Fewer Conditions

10-Day Weather Forecast

×

Almanac

Astronomy

Jul. 01, 2015 Rise Set
Actual Time
Civil Twilight
Nautical Twilight
Astronomical Twilight
Moon
Length of Visible Light
Length of Day
Tomorrow will be .
, % of the Moon is Illuminated

Today's Extremes

Country Highs Country Lows

Community

WunderPhotos

Upload Photos

1,834,335 photos uploaded!

WunderBlogs® & News

Nearby

Air Quality

  Air Quality AQ Index Pollutant
Not available.

Snow Depth

Station Depth Elevation

Earthquake Activity

City Distance Mag. Time & Date
Minimum magnitude displayed is 2.5.

Coastal Water Temperatures

Place Temperature

Stations

Nearby Weather Stations

Station Location Temp. Windchill Dew Point Humidity Wind Precip. Elev Updated Type